Weather reports worldwide

Advertisment
Otranto, Italy (16334): temperature & dewpoint: 15.05.2019 17:00:00 - 21.05.2019 17:00:00 (CEST)Otranto, Italy (16334): wind speed: 15.05.2019 17:00:00 - 21.05.2019 17:00:00 (CEST)Otranto, Italy (16334): wind direction: 15.05.2019 17:00:00 - 21.05.2019 17:00:00 (CEST)Otranto, Italy (16334): reduced air pressure: 15.05.2019 17:00:00 - 21.05.2019 17:00:00 (CEST)
Date & Time tt [°C] td [°C] ff [km/h] ff [kn] dd ppp [hPa]
21.05.2019 17:00:00 - - - - - -
21.05.2019 16:00:00 19,6 19,5 22 12 SSW 1015,2
21.05.2019 15:00:00 19,7 19,5 21 11 S 1015,5
21.05.2019 14:00:00 19,9 19,8 22 12 SSE 1015,3
21.05.2019 13:00:00 19,8 19,7 21 11 S 1015,2
21.05.2019 12:00:00 19,3 19,2 18 10 S 1015,2
21.05.2019 11:00:00 18,9 18,8 18 10 S 1015,0
21.05.2019 10:00:00 19,0 18,9 16 9 SSE 1014,6
21.05.2019 09:00:00 18,4 17,9 15 8 SSE 1014,4
21.05.2019 08:00:00 17,6 17,4 5 3 S 1013,6
21.05.2019 07:00:00 16,0 15,9 8 4 W 1013,5
21.05.2019 06:00:00 14,7 14,6 9 5 SSW 1013,4
21.05.2019 05:00:00 14,5 14,4 5 3 SW 1013,3
21.05.2019 04:00:00 15,4 15,3 5 3 SW 1013,4
21.05.2019 03:00:00 16,0 15,9 4 2 SSW 1013,5
21.05.2019 02:00:00 15,8 15,7 5 3 S 1013,7
21.05.2019 01:00:00 15,9 15,8 4 2 SW 1013,9
21.05.2019 00:00:00 16,4 16,3 9 5 S 1013,9
20.05.2019 23:00:00 16,8 16,7 8 4 SSW 1013,6
20.05.2019 22:00:00 16,9 16,8 5 3 W 1013,5
20.05.2019 21:00:00 16,2 16,1 4 2 N 1013,1
20.05.2019 20:00:00 17,1 17,0 13 7 S 1012,8
20.05.2019 19:00:00 - - - - - -
20.05.2019 18:00:00 18,7 18,6 26 14 S 1012,3
20.05.2019 17:00:00 19,0 18,6 24 13 S 1012,1
20.05.2019 16:00:00 19,4 18,2 28 15 S 1011,9
20.05.2019 15:00:00 19,3 19,1 21 11 S 1012,0
20.05.2019 14:00:00 19,4 18,5 22 12 S 1012,0
20.05.2019 13:00:00 19,5 17,9 22 12 SSE 1012,3
20.05.2019 12:00:00 19,5 18,6 18 10 S 1012,2
20.05.2019 11:00:00 18,8 17,6 9 5 SE 1012,0
20.05.2019 10:00:00 17,6 16,4 4 2 SSW 1011,9
20.05.2019 09:00:00 16,8 15,6 5 3 W 1011,1
20.05.2019 08:00:00 16,9 16,8 11 6 W 1010,2
20.05.2019 07:00:00 15,5 15,4 13 7 W 1009,5
20.05.2019 06:00:00 15,4 15,3 11 6 WSW 1008,9
20.05.2019 05:00:00 15,6 15,5 11 6 NW 1009,0
20.05.2019 04:00:00 15,4 15,3 11 6 W 1008,8
20.05.2019 03:00:00 15,1 15,0 11 6 W 1009,0
20.05.2019 02:00:00 15,7 15,6 9 5 WSW 1009,1
20.05.2019 01:00:00 15,7 15,6 5 3 SSW 1009,1
20.05.2019 00:00:00 15,8 15,7 8 4 SW 1009,1
19.05.2019 23:00:00 16,3 16,2 8 4 SW 1008,8
19.05.2019 22:00:00 16,7 16,6 11 6 S 1008,8
19.05.2019 21:00:00 16,3 16,2 5 3 SSW 1008,0
19.05.2019 20:00:00 17,6 17,5 4 2 SSE 1007,5
19.05.2019 19:00:00 18,3 18,2 13 7 S 1007,2
19.05.2019 18:00:00 18,9 18,8 16 9 S 1006,2
19.05.2019 17:00:00 19,3 19,2 18 10 S 1006,0
19.05.2019 16:00:00 19,8 19,7 16 9 SSE 1005,8
19.05.2019 15:00:00 20,3 20,1 16 9 S 1005,2
19.05.2019 14:00:00 19,2 19,1 15 8 SSW 1005,0
19.05.2019 13:00:00 18,8 18,7 21 11 SSE 1004,6
19.05.2019 12:00:00 18,5 18,4 24 13 S 1004,5
19.05.2019 11:00:00 19,1 19,0 24 13 S 1004,4
19.05.2019 10:00:00 18,5 18,4 15 8 S 1004,8
19.05.2019 09:00:00 18,1 18,0 16 9 S 1004,6
19.05.2019 08:00:00 17,5 17,4 13 7 S 1005,0
19.05.2019 07:00:00 16,5 16,4 11 6 SSE 1004,8
19.05.2019 06:00:00 15,6 15,5 5 3 ESE 1005,1
19.05.2019 05:00:00 16,1 16,0 8 4 SSE 1006,0
19.05.2019 04:00:00 16,2 16,1 9 5 SE 1006,5
19.05.2019 03:00:00 16,5 16,4 13 7 SE 1007,3
19.05.2019 02:00:00 16,5 16,4 13 7 SSE 1007,7
19.05.2019 01:00:00 16,3 16,2 18 10 SSE 1008,1
19.05.2019 00:00:00 16,2 16,1 13 7 S 1008,9
18.05.2019 23:00:00 16,4 16,3 16 9 SSE 1008,9
18.05.2019 22:00:00 16,4 16,3 18 10 SSE 1009,0
18.05.2019 21:00:00 16,5 16,4 22 12 S 1008,9
18.05.2019 20:00:00 16,7 16,6 18 10 S 1009,0
18.05.2019 19:00:00 17,2 17,1 16 9 S 1008,9
18.05.2019 18:00:00 17,4 17,3 21 11 S 1009,1
18.05.2019 17:00:00 17,5 17,4 21 11 S 1009,4
18.05.2019 16:00:00 18,1 18,0 26 14 S 1009,4
18.05.2019 15:00:00 18,1 18,0 26 14 S 1010,1
18.05.2019 14:00:00 18,6 18,5 26 14 S 1009,4
18.05.2019 13:00:00 18,1 18,0 28 15 S 1009,9
18.05.2019 12:00:00 18,1 18,0 22 12 SSE 1010,3
18.05.2019 11:00:00 17,7 17,6 18 10 SSE 1010,3
18.05.2019 10:00:00 17,6 17,5 24 13 SSE 1010,1
18.05.2019 09:00:00 16,9 16,8 18 10 S 1010,4
18.05.2019 08:00:00 16,2 16,1 16 9 SE 1009,4
18.05.2019 07:00:00 15,7 15,6 15 8 SSE 1009,5
18.05.2019 06:00:00 14,4 14,3 9 5 SSE 1009,8
18.05.2019 05:00:00 14,2 14,1 5 3 SSW 1009,9
18.05.2019 04:00:00 14,3 14,2 9 5 SSW 1009,9
18.05.2019 03:00:00 14,1 14,0 9 5 S 1009,5
18.05.2019 02:00:00 14,0 13,9 5 3 SW 1010,2
18.05.2019 01:00:00 14,2 14,1 8 4 SW 1010,7
18.05.2019 00:00:00 14,7 14,6 5 3 SSW 1010,8
17.05.2019 23:00:00 14,6 14,5 5 3 SW 1010,6
17.05.2019 22:00:00 15,0 14,9 2 1 SSW 1010,4
17.05.2019 21:00:00 15,3 15,2 0 0 N 1010,3
17.05.2019 20:00:00 16,7 16,6 2 1 ENE 1010,1
17.05.2019 19:00:00 17,5 17,4 5 3 NE 1010,0
17.05.2019 18:00:00 17,9 17,8 9 5 E 1010,1
17.05.2019 17:00:00 18,4 17,9 11 6 NE 1010,0
17.05.2019 16:00:00 18,3 17,9 13 7 N 1009,9
17.05.2019 15:00:00 18,6 18,4 16 9 NE 1010,2
17.05.2019 14:00:00 18,5 18,3 16 9 NNE 1010,6
17.05.2019 13:00:00 18,6 18,2 16 9 N 1010,8
17.05.2019 12:00:00 18,2 18,1 18 10 N 1011,1
17.05.2019 11:00:00 18,0 17,9 16 9 N 1010,9
17.05.2019 10:00:00 17,5 17,4 18 10 N 1010,7
17.05.2019 09:00:00 17,0 16,9 16 9 N 1010,2
17.05.2019 08:00:00 15,8 15,7 9 5 N 1010,3
17.05.2019 07:00:00 14,0 13,9 11 6 NNW 1010,1
17.05.2019 06:00:00 13,2 13,1 8 4 NW 1009,6
17.05.2019 05:00:00 13,4 13,3 8 4 NNW 1009,5
17.05.2019 04:00:00 13,7 13,6 8 4 NNW 1009,3
17.05.2019 03:00:00 14,1 14,0 9 5 N 1009,3
17.05.2019 02:00:00 14,8 14,7 5 3 NNE 1009,6
17.05.2019 01:00:00 15,6 15,5 5 3 NNE 1009,9
17.05.2019 00:00:00 15,5 15,4 5 3 ENE 1010,2
16.05.2019 23:00:00 16,0 15,9 9 5 E 1010,3
16.05.2019 22:00:00 15,9 15,8 5 3 NE 1010,2
16.05.2019 21:00:00 15,3 15,2 5 3 N 1009,9
16.05.2019 20:00:00 15,7 15,6 4 2 NE 1009,5
16.05.2019 19:00:00 16,4 16,3 4 2 NE 1009,3
16.05.2019 18:00:00 16,3 16,2 8 4 SSE 1009,1
16.05.2019 17:00:00 16,6 16,5 13 7 S 1008,9
16.05.2019 16:00:00 16,6 16,5 9 5 S 1009,4
16.05.2019 15:00:00 16,2 16,1 13 7 S 1009,6
16.05.2019 14:00:00 17,6 17,5 15 8 SE 1009,5
16.05.2019 13:00:00 18,3 18,2 13 7 SSE 1009,4
16.05.2019 12:00:00 16,4 16,3 9 5 S 1009,5
16.05.2019 11:00:00 15,6 15,5 8 4 ESE 1009,9
16.05.2019 10:00:00 15,4 15,3 8 4 E 1009,7
16.05.2019 09:00:00 14,5 14,4 0 0 N 1009,7
16.05.2019 08:00:00 15,7 15,6 4 2 W 1009,5
16.05.2019 07:00:00 15,1 15,0 4 2 NNE 1009,2
16.05.2019 06:00:00 13,8 13,7 4 2 E 1009,0
16.05.2019 05:00:00 13,5 13,4 0 0 N 1008,9
16.05.2019 04:00:00 14,2 14,1 2 1 ENE 1009,1
16.05.2019 03:00:00 14,2 14,1 0 0 N 1009,4
16.05.2019 02:00:00 13,6 13,5 0 0 N 1010,3
16.05.2019 01:00:00 13,9 13,8 4 2 SE 1010,6
16.05.2019 00:00:00 14,0 13,9 2 1 ESE 1011,0
15.05.2019 23:00:00 14,8 14,7 4 2 E 1010,9
15.05.2019 22:00:00 14,8 14,7 4 2 ENE 1011,1
15.05.2019 21:00:00 14,7 14,6 4 2 NNE 1011,2
15.05.2019 20:00:00 15,3 15,2 4 2 ENE 1011,4
15.05.2019 19:00:00 15,7 15,6 4 2 ENE 1011,4
15.05.2019 18:00:00 16,0 15,9 4 2 ENE 1011,2
15.05.2019 17:00:00 17,1 16,9 8 4 ENE 1011,0

tt = temperature
td = dewpoint
ff = wind speed
dd = wind direction
ppp = reduced air pressure

Next stations